CST,Max TemperatureF,Mean TemperatureF,Min TemperatureF,Max Dew PointF,MeanDew PointF,Min DewpointF,Max Humidity, Mean Humidity, Min Humidity, Max Sea Level PressureIn, Mean Sea Level PressureIn, Min Sea Level PressureIn, Max VisibilityMiles, Mean VisibilityMiles, Min VisibilityMiles, Max Wind SpeedMPH, Mean Wind SpeedMPH, Max Gust SpeedMPH,PrecipitationIn, CloudCover, Events, WindDirDegrees
2012-11-1,46,38,32,32,27,22,73,60,42,30.08,30.00,29.94,10,10,10,18,7,24,0.00,5,,340
2012-11-2,39,33,27,25,24,21,85,65,51,30.20,30.16,30.09,10,10,10,6,3,,0.00,3,,356
2012-11-3,43,40,37,27,26,24,62,58,51,30.25,30.23,30.19,10,10,10,6,3,,0.00,8,,71
2012-11-4,45,36,28,34,30,25,89,71,60,30.26,30.22,30.17,10,10,8,8,2,,0.00,5,,112
2012-11-5,44,40,37,35,31,28,76,69,65,30.23,30.15,29.97,10,9,6,13,6,18,0.00,8,,124
2012-11-6,44,42,39,39,36,33,93,82,66,30.00,29.86,29.78,10,7,2,18,11,25,0.28,8,Rain,285
2012-11-7,45,40,36,35,33,31,86,77,58,30.14,30.10,30.01,10,10,10,9,6,,0.00,7,,293
2012-11-8,55,45,35,37,33,30,82,69,48,30.09,30.00,29.93,10,10,10,13,7,20,0.00,0,,177
2012-11-9,55,44,34,39,36,31,92,72,55,30.08,30.01,29.95,10,9,5,13,6,20,0.00,2,,77
2012-11-10,68,56,44,56,48,41,94,85,65,29.92,29.66,29.47,10,4,1,40,12,70,0.33,7,Rain-Thunderstorm,126
2012-11-11,57,40,23,54,31,12,94,81,60,29.98,29.75,29.54,10,8,3,17,11,24,0.03,8,Rain-Snow,263
2012-11-12,26,22,19,18,15,9,86,72,58,30.33,30.08,29.97,10,8,0,21,13,28,0.01,7,Fog-Snow,261
2012-11-13,43,30,17,28,21,12,88,68,45,30.41,30.36,30.32,10,10,7,13,6,,0.00,2,,167
2012-11-14,50,42,34,34,31,27,76,66,50,30.30,30.25,30.18,10,10,8,9,6,,0.00,3,,148
2012-11-15,53,42,28,33,26,11,79,56,37,30.49,30.28,30.15,10,10,7,13,7,,0.00,3,,316
2012-11-16,43,34,24,28,19,12,82,59,40,30.53,30.46,30.36,10,10,10,9,4,,0.00,0,,148
2012-11-17,55,44,32,37,34,27,85,66,49,30.36,30.29,30.23,10,9,6,16,9,22,0.00,2,,152
2012-11-18,57,50,44,34,32,31,60,51,40,30.22,30.15,30.08,10,10,10,15,13,23,0.00,3,,152
2012-11-19,59,50,39,39,37,34,89,62,46,30.11,30.06,30.02,10,10,6,13,8,,0.00,3,,161
2012-11-20,53,43,33,35,33,31,92,76,45,30.19,30.14,30.08,9,8,5,9,4,,0.00,0,,291
2012-11-21,61,49,37,42,37,33,86,64,42,30.06,29.90,29.71,10,9,5,12,6,,0.00,0,,153
2012-11-22,57,40,24,42,32,18,93,75,55,30.00,29.81,29.63,10,7,1,29,14,37,0.01,5,Rain-Snow,271
2012-11-23,26,22,15,16,14,9,86,72,60,30.41,30.24,30.01,10,8,1,26,21,39,0.00,7,Snow,307
2012-11-24,30,21,12,18,13,7,88,69,53,30.40,30.14,29.85,10,10,10,17,6,,0.00,4,,154
2012-11-25,30,29,26,22,20,13,72,67,58,30.19,30.00,29.82,10,10,10,20,8,24,0.00,8,,299
2012-11-26,23,18,12,9,6,3,74,64,46,30.46,30.39,30.22,10,10,10,18,11,,0.00,2,,308
2012-11-27,37,26,15,24,16,7,81,68,55,30.39,30.24,30.12,10,10,9,9,6,,0.00,3,,187
2012-11-28,36,30,25,24,21,18,78,69,57,30.38,30.27,30.13,10,10,7,13,8,18,0.00,4,,239
2012-11-29,39,32,24,25,24,21,88,71,53,30.14,30.12,30.08,10,8,5,12,3,17,0.00,0,,56
2012-11-30,36,34,32,32,28,25,89,79,72,30.21,30.15,30.11,8,6,3,14,7,18,0.00,7,,100